Time;durP1;ratioP1;P1;durP2;ratioP2;P2;SDS_P1;SDS_P2;PMS_P1;PMS_P2;Temp;Humidity;BMP_temperature;BMP_pressure;BME280_temperature;BME280_humidity;BME280_pressure;Samples;Min_cycle;Max_cycle;Signal;HPM_P1;HPM_P2
2023/01/20 00:16:15;;;;;;;22.45;17.52;;;;;;;2.63;91.62;97462.75;4167358;28;20923;-87
2023/01/20 00:18:39;;;;;;;26.35;18.35;;;;;;;2.57;91.71;97476.75;4169961;28;20300;-87
2023/01/20 00:21:20;;;;;;;24.38;17.73;;;;;;;2.58;91.94;97475.00;4166050;28;20245;-87
2023/01/20 00:24:12;;;;;;;27.63;18.80;;;;;;;2.56;91.92;97480.22;4177312;28;20640;-85
2023/01/20 00:27:13;;;;;;;25.27;19.23;;;;;;;2.57;92.01;97481.06;4175827;28;20209;-85
2023/01/20 00:29:16;;;;;;;24.58;18.50;;;;;;;2.55;91.57;97477.72;4170741;28;20214;-85
2023/01/20 00:31:22;;;;;;;23.55;18.20;;;;;;;2.54;92.16;97473.47;4174767;28;20731;-84
2023/01/20 00:33:25;;;;;;;23.02;16.80;;;;;;;2.55;91.99;97478.56;4185991;28;20213;-85
2023/01/20 00:35:28;;;;;;;24.17;17.77;;;;;;;2.54;91.46;97481.19;4171676;28;20252;-85
2023/01/20 00:37:31;;;;;;;24.92;17.85;;;;;;;2.49;91.79;97478.84;4171194;28;20221;-85
2023/01/20 00:39:34;;;;;;;24.52;17.92;;;;;;;2.48;91.80;97482.34;4165182;28;20565;-85
2023/01/20 00:41:37;;;;;;;26.08;19.13;;;;;;;2.50;91.83;97488.25;4200548;28;20316;-85
2023/01/20 00:43:40;;;;;;;24.42;18.33;;;;;;;2.53;91.76;97490.66;4170849;28;21084;-85
2023/01/20 00:45:43;;;;;;;24.40;17.70;;;;;;;2.51;92.14;97491.63;4176275;28;20199;-85
2023/01/20 00:47:50;;;;;;;25.70;18.70;;;;;;;2.51;92.39;97492.50;4183742;28;20210;-85
2023/01/20 00:49:53;;;;;;;23.73;17.25;;;;;;;2.53;91.88;97489.84;4202464;28;20669;-85
2023/01/20 00:51:56;;;;;;;23.05;17.85;;;;;;;2.54;91.85;97491.50;4182207;28;20205;-85
2023/01/20 00:53:59;;;;;;;20.20;17.13;;;;;;;2.51;92.02;97497.63;4201446;28;20230;-85
2023/01/20 00:56:02;;;;;;;21.08;17.50;;;;;;;2.51;92.37;97497.63;4169598;28;20710;-85
2023/01/20 00:58:05;;;;;;;22.92;17.33;;;;;;;2.53;92.82;97498.38;4205654;28;20273;-85
2023/01/20 01:00:09;;;;;;;26.55;18.50;;;;;;;2.55;92.34;97504.28;4181659;28;20206;-85
2023/01/20 01:02:14;;;;;;;22.65;16.73;;;;;;;2.54;92.59;97505.22;4180424;28;20213;-85
2023/01/20 01:04:19;;;;;;;20.17;17.00;;;;;;;2.54;92.59;97512.94;4180080;28;20330;-85
2023/01/20 01:06:22;;;;;;;28.95;19.00;;;;;;;2.53;91.91;97511.25;4179549;28;20199;-85
2023/01/20 01:08:25;;;;;;;23.33;16.80;;;;;;;2.49;92.13;97514.84;4184091;28;20212;-85
2023/01/20 01:10:28;;;;;;;22.88;16.73;;;;;;;2.47;92.42;97514.09;4167834;28;20214;-85
2023/01/20 01:12:32;;;;;;;22.88;17.85;;;;;;;2.47;92.36;97521.81;4176003;28;20210;-85
2023/01/20 01:14:35;;;;;;;23.63;17.90;;;;;;;2.45;92.04;97522.78;4171762;28;20226;-85
2023/01/20 01:16:38;;;;;;;24.10;18.95;;;;;;;2.46;91.95;97529.59;4170298;28;20210;-85
2023/01/20 01:18:42;;;;;;;25.38;19.38;;;;;;;2.45;92.22;97531.34;4188410;28;20246;-85
2023/01/20 01:20:47;;;;;;;28.17;20.25;;;;;;;2.46;92.03;97533.00;4174155;28;20226;-85
2023/01/20 01:22:52;;;;;;;23.13;18.45;;;;;;;2.46;92.20;97532.19;4191734;28;20242;-85
2023/01/20 01:24:55;;;;;;;30.25;21.08;;;;;;;2.47;92.56;97537.25;4157508;28;20656;-85
2023/01/20 01:26:58;;;;;;;23.35;18.98;;;;;;;2.47;92.75;97537.25;4171335;28;20217;-85
2023/01/20 01:29:01;;;;;;;30.00;21.95;;;;;;;2.50;92.60;97541.44;4190329;28;20551;-85
2023/01/20 01:31:05;;;;;;;29.98;20.52;;;;;;;2.50;92.58;97544.84;4173337;28;20259;-85
2023/01/20 01:33:08;;;;;;;26.23;19.77;;;;;;;2.51;92.80;97543.09;4188712;28;20254;-85
2023/01/20 01:35:11;;;;;;;24.73;18.95;;;;;;;2.51;92.77;97553.38;4155861;28;20663;-86
2023/01/20 01:37:16;;;;;;;27.13;18.17;;;;;;;2.49;92.82;97550.06;4192117;28;20285;-85
2023/01/20 01:39:19;;;;;;;25.65;18.92;;;;;;;2.50;92.44;97555.13;4189943;28;20276;-85
2023/01/20 01:41:23;;;;;;;26.05;18.58;;;;;;;2.51;92.49;97554.22;4190305;28;20217;-85
2023/01/20 01:43:27;;;;;;;23.45;17.85;;;;;;;2.52;92.54;97558.47;4186451;28;20197;-85
2023/01/20 01:45:32;;;;;;;24.55;18.70;;;;;;;2.54;92.77;97555.81;4191116;28;20244;-85
2023/01/20 01:47:36;;;;;;;25.05;18.40;;;;;;;2.54;92.41;97554.09;4177966;28;20713;-86
2023/01/20 01:49:39;;;;;;;28.08;19.55;;;;;;;2.56;93.08;97556.59;4191810;28;20206;-85
2023/01/20 01:51:45;;;;;;;22.85;18.20;;;;;;;2.55;93.05;97553.16;4172818;28;20285;-87
2023/01/20 01:53:53;;;;;;;24.65;17.55;;;;;;;2.58;93.40;97558.19;4173618;28;20613;-88
2023/01/20 01:55:58;;;;;;;25.08;18.15;;;;;;;2.60;92.68;97556.38;4161093;28;20276;-88
2023/01/20 01:58:01;;;;;;;24.30;18.35;;;;;;;2.58;92.90;97555.59;4157858;28;20198;-88
2023/01/20 02:00:06;;;;;;;23.17;17.63;;;;;;;2.59;93.25;97552.13;4175461;28;20210;-88
2023/01/20 02:02:14;;;;;;;23.40;17.48;;;;;;;2.60;93.33;97558.97;4191874;28;20639;-88
2023/01/20 02:04:25;;;;;;;24.95;18.38;;;;;;;2.60;92.96;97564.09;4175439;28;20603;-88
2023/01/20 02:06:32;;;;;;;26.48;17.58;;;;;;;2.63;93.08;97556.25;4195226;28;20653;-88
2023/01/20 02:08:35;;;;;;;22.90;17.25;;;;;;;2.67;93.30;97562.06;4154438;28;20670;-88
2023/01/20 02:10:39;;;;;;;24.52;18.05;;;;;;;2.69;92.84;97557.69;4160357;28;20207;-88
2023/01/20 02:12:46;;;;;;;21.65;17.50;;;;;;;2.68;93.17;97563.75;4167730;28;20218;-88
2023/01/20 02:14:51;;;;;;;24.98;17.40;;;;;;;2.69;92.80;97560.25;4161513;28;20640;-88
2023/01/20 02:16:59;;;;;;;20.38;15.50;;;;;;;2.72;92.31;97563.56;4167401;28;20230;-88
2023/01/20 02:19:15;;;;;;;24.92;17.75;;;;;;;2.69;92.25;97563.69;4174486;28;20296;-88
2023/01/20 02:21:39;;;;;;;18.83;15.52;;;;;;;2.70;92.74;97572.22;4168477;28;20203;-88
2023/01/20 02:24:02;;;;;;;23.85;16.20;;;;;;;2.67;92.46;97567.22;4170422;28;20206;-88
2023/01/20 02:26:22;;;;;;;26.17;16.83;;;;;;;2.67;92.72;97568.06;4155577;28;20593;-88
2023/01/20 02:28:58;;;;;;;21.80;17.58;;;;;;;2.66;93.06;97576.69;4187190;28;20224;-88
2023/01/20 02:31:22;;;;;;;20.95;16.92;;;;;;;2.68;92.68;97571.47;4162000;28;20252;-88
2023/01/20 02:33:29;;;;;;;22.98;18.10;;;;;;;2.68;92.91;97571.47;4167091;28;20206;-88
2023/01/20 02:35:37;;;;;;;22.52;17.35;;;;;;;2.69;92.88;97575.69;4172026;28;20732;-88
2023/01/20 02:37:47;;;;;;;21.35;16.08;;;;;;;2.69;92.83;97573.97;4171215;28;20249;-87
2023/01/20 02:39:57;;;;;;;22.38;16.23;;;;;;;2.70;92.69;97567.09;4191141;28;20583;-87
2023/01/20 02:42:03;;;;;;;23.52;17.33;;;;;;;2.70;92.80;97573.06;4157210;28;20733;-87
2023/01/20 02:44:11;;;;;;;21.33;16.85;;;;;;;2.69;92.71;97579.13;4156231;28;20306;-87
2023/01/20 02:46:18;;;;;;;26.25;18.27;;;;;;;2.67;92.10;97580.91;4177183;28;20202;-88
2023/01/20 02:48:24;;;;;;;26.50;18.98;;;;;;;2.65;92.43;97577.59;4172905;28;20229;-88
2023/01/20 02:50:33;;;;;;;27.83;20.13;;;;;;;2.63;92.86;97584.56;4176087;28;20257;-88
2023/01/20 02:52:39;;;;;;;21.83;17.85;;;;;;;2.62;93.12;97577.72;4156537;28;20210;-87
2023/01/20 02:54:46;;;;;;;23.58;18.30;;;;;;;2.65;92.92;97587.06;4174889;28;20795;-88
2023/01/20 02:56:50;;;;;;;26.27;18.90;;;;;;;2.66;92.70;97587.00;4152825;28;20737;-88
2023/01/20 02:59:00;;;;;;;24.55;18.52;;;;;;;2.67;93.36;97585.25;4155427;28;20679;-87
2023/01/20 03:01:06;;;;;;;24.35;17.55;;;;;;;2.66;92.87;97584.41;4169946;28;20719;-88
2023/01/20 03:03:11;;;;;;;25.23;17.23;;;;;;;2.65;93.50;97587.88;4152971;28;20223;-87
2023/01/20 03:05:18;;;;;;;22.75;16.70;;;;;;;2.67;92.98;97588.63;4188829;28;20205;-87
2023/01/20 03:07:25;;;;;;;20.90;17.95;;;;;;;2.66;93.81;97587.00;4154747;28;20206;-88
2023/01/20 03:09:31;;;;;;;25.60;17.45;;;;;;;2.67;93.52;97591.22;4155856;28;21193;-88
2023/01/20 03:11:37;;;;;;;24.02;16.73;;;;;;;2.67;93.22;97596.34;4170641;28;20218;-88
2023/01/20 03:13:44;;;;;;;24.80;19.00;;;;;;;2.70;93.55;97601.38;4168845;28;20762;-88
2023/01/20 03:15:54;;;;;;;25.95;18.13;;;;;;;2.72;92.88;97602.16;4168356;28;21305;-87
2023/01/20 03:17:57;;;;;;;24.55;17.70;;;;;;;2.73;93.19;97603.81;4170235;28;20249;-87
2023/01/20 03:20:01;;;;;;;25.65;18.90;;;;;;;2.71;93.55;97608.19;4151150;28;20286;-88
2023/01/20 03:22:04;;;;;;;23.63;16.95;;;;;;;2.72;93.90;97602.16;4186136;28;20747;-87
2023/01/20 03:24:11;;;;;;;24.58;17.60;;;;;;;2.75;93.08;97603.72;4171120;28;20234;-87
2023/01/20 03:26:16;;;;;;;21.27;16.38;;;;;;;2.77;93.54;97615.63;4158143;28;20222;-87
2023/01/20 03:28:19;;;;;;;24.75;17.45;;;;;;;2.77;92.98;97610.50;4168911;28;20620;-87
2023/01/20 03:30:24;;;;;;;24.08;17.65;;;;;;;2.77;92.92;97617.34;4172268;28;20658;-88
2023/01/20 03:32:27;;;;;;;22.05;17.65;;;;;;;2.77;93.00;97613.06;4173663;28;20198;-88
2023/01/20 03:34:33;;;;;;;23.73;16.85;;;;;;;2.78;92.99;97619.03;4188560;28;20205;-88
2023/01/20 03:36:37;;;;;;;21.30;17.38;;;;;;;2.78;93.42;97613.88;4170229;28;20202;-88
2023/01/20 03:38:40;;;;;;;23.25;16.65;;;;;;;2.77;93.12;97613.06;4189124;28;20281;-88
2023/01/20 03:40:50;;;;;;;21.75;17.35;;;;;;;2.77;93.76;97612.22;4189274;28;20735;-88
2023/01/20 03:43:00;;;;;;;21.05;17.38;;;;;;;2.77;93.48;97623.34;4187499;28;20231;-88
2023/01/20 03:45:08;;;;;;;23.20;17.40;;;;;;;2.77;93.02;97618.22;4170818;28;20210;-87
2023/01/20 03:47:18;;;;;;;27.27;18.50;;;;;;;2.78;93.50;97619.84;4173647;28;20631;-88
2023/01/20 03:49:27;;;;;;;23.10;18.38;;;;;;;2.78;93.14;97629.34;4173914;28;20201;-87
2023/01/20 03:51:34;;;;;;;24.90;19.25;;;;;;;2.79;93.11;97621.53;4185443;28;20204;-85
2023/01/20 03:53:44;;;;;;;22.20;17.67;;;;;;;2.79;93.33;97629.25;4158751;28;20209;-85
2023/01/20 03:55:51;;;;;;;21.38;17.02;;;;;;;2.82;92.94;97631.69;4190325;28;20618;-85
2023/01/20 03:57:57;;;;;;;21.45;17.77;;;;;;;2.82;92.72;97634.28;4150417;28;20229;-85
2023/01/20 04:00:00;;;;;;;24.92;17.98;;;;;;;2.81;92.57;97638.59;4169176;28;20206;-85
2023/01/20 04:02:13;;;;;;;20.92;16.55;;;;;;;2.80;93.02;97638.66;4168634;28;20260;-85
2023/01/20 04:04:18;;;;;;;26.77;17.35;;;;;;;2.80;93.14;97643.81;4192339;28;20209;-85
2023/01/20 04:06:23;;;;;;;23.95;16.55;;;;;;;2.81;93.32;97648.91;4185197;28;20229;-85
2023/01/20 04:08:30;;;;;;;22.30;17.38;;;;;;;2.85;93.00;97644.44;4190660;28;20705;-85
2023/01/20 04:10:35;;;;;;;23.50;17.65;;;;;;;2.86;93.14;97640.97;4185137;28;20292;-85
2023/01/20 04:12:39;;;;;;;21.13;17.27;;;;;;;2.85;92.60;97647.00;4150918;28;20297;-85
2023/01/20 04:14:42;;;;;;;20.55;17.27;;;;;;;2.85;93.19;97652.16;4188777;28;20293;-85
2023/01/20 04:16:51;;;;;;;22.05;17.02;;;;;;;2.88;92.95;97654.59;4191197;28;20300;-85
2023/01/20 04:18:54;;;;;;;20.15;16.58;;;;;;;2.87;92.64;97655.47;4192059;28;20240;-85
2023/01/20 04:21:00;;;;;;;23.52;18.67;;;;;;;2.84;93.06;97655.63;4172108;28;20206;-85
2023/01/20 04:23:03;;;;;;;24.42;16.92;;;;;;;2.84;92.99;97655.63;4152593;28;20227;-85
2023/01/20 04:25:11;;;;;;;22.98;17.45;;;;;;;2.82;92.58;97657.44;4187962;28;20213;-85
2023/01/20 04:27:14;;;;;;;20.92;16.65;;;;;;;2.83;92.97;97659.13;4170728;28;20234;-85
2023/01/20 04:29:19;;;;;;;25.98;17.70;;;;;;;2.83;92.58;97667.66;4169486;28;20614;-85
2023/01/20 04:31:22;;;;;;;22.77;17.70;;;;;;;2.83;93.21;97665.09;4154469;28;20608;-85
2023/01/20 04:33:33;;;;;;;24.70;19.33;;;;;;;2.82;92.77;97668.56;4154935;28;20245;-86
2023/01/20 04:35:36;;;;;;;22.85;17.98;;;;;;;2.84;92.66;97677.06;4189363;28;20770;-86
2023/01/20 04:37:39;;;;;;;21.77;17.50;;;;;;;2.85;92.82;97675.31;4172643;28;20674;-86
2023/01/20 04:39:42;;;;;;;26.83;16.60;;;;;;;2.86;92.83;97675.25;4173857;28;20930;-86
2023/01/20 04:41:46;;;;;;;21.92;16.85;;;;;;;2.87;93.22;97676.06;4187541;28;20225;-86
2023/01/20 04:43:49;;;;;;;21.55;17.55;;;;;;;2.86;93.09;97674.44;4172778;28;20222;-86
2023/01/20 04:45:53;;;;;;;22.08;16.90;;;;;;;2.86;93.36;97679.59;4169853;28;20206;-86
2023/01/20 04:47:56;;;;;;;25.23;17.55;;;;;;;2.88;93.41;97680.34;4191888;28;20201;-85
2023/01/20 04:49:59;;;;;;;19.13;16.35;;;;;;;2.88;93.50;97683.72;4175246;28;20226;-85
2023/01/20 04:52:02;;;;;;;22.60;18.17;;;;;;;2.90;93.41;97686.25;4192047;28;20205;-86
2023/01/20 04:54:06;;;;;;;22.88;17.65;;;;;;;2.93;93.61;97691.25;4192536;28;20255;-85
2023/01/20 04:56:11;;;;;;;25.45;19.17;;;;;;;2.95;93.29;97689.47;4171929;28;20217;-85
2023/01/20 04:58:14;;;;;;;24.58;17.90;;;;;;;2.95;92.64;97690.28;4190836;28;20216;-85
2023/01/20 05:00:19;;;;;;;23.60;17.38;;;;;;;2.95;93.35;97686.88;4192352;28;20270;-85
2023/01/20 05:02:23;;;;;;;21.60;17.85;;;;;;;2.94;93.14;97701.47;4154957;28;20202;-85
2023/01/20 05:04:26;;;;;;;21.98;17.75;;;;;;;2.94;93.07;97701.47;4172907;28;20743;-85
2023/01/20 05:06:30;;;;;;;26.20;18.08;;;;;;;2.95;92.75;97699.78;4157954;28;20195;-85
2023/01/20 05:08:33;;;;;;;25.13;19.45;;;;;;;2.95;92.98;97698.00;4174095;28;20202;-85
2023/01/20 05:10:36;;;;;;;21.75;17.45;;;;;;;2.98;92.29;97705.59;4171718;28;20213;-85
2023/01/20 05:12:40;;;;;;;23.50;19.17;;;;;;;2.97;92.86;97703.09;4154202;28;20760;-85
2023/01/20 05:14:43;;;;;;;23.65;18.38;;;;;;;3.01;93.00;97702.06;4169106;28;20194;-85
2023/01/20 05:16:46;;;;;;;21.85;17.98;;;;;;;3.00;93.02;97705.53;4187624;28;20201;-87
2023/01/20 05:18:51;;;;;;;26.60;19.75;;;;;;;2.98;92.50;97710.75;4172713;28;20195;-85
2023/01/20 05:20:54;;;;;;;26.85;20.88;;;;;;;2.97;92.86;97710.81;4189321;28;20307;-85
2023/01/20 05:22:57;;;;;;;23.92;19.45;;;;;;;2.94;92.53;97708.38;4169983;28;20251;-85
2023/01/20 05:25:03;;;;;;;26.35;20.20;;;;;;;2.92;92.03;97711.03;4155892;28;20238;-86
2023/01/20 05:27:06;;;;;;;25.10;19.23;;;;;;;2.92;92.48;97715.34;4157731;28;20202;-85
2023/01/20 05:29:09;;;;;;;26.85;19.45;;;;;;;2.89;92.11;97716.31;4191703;28;20247;-86
2023/01/20 05:31:12;;;;;;;24.58;18.70;;;;;;;2.89;92.60;97720.63;4170770;28;20214;-86
2023/01/20 05:33:15;;;;;;;26.00;19.65;;;;;;;2.88;92.74;97732.66;4183611;28;20209;-86
2023/01/20 05:35:20;;;;;;;25.35;18.08;;;;;;;2.88;92.52;97729.25;4170141;28;22003;-86
2023/01/20 05:37:23;;;;;;;25.15;19.90;;;;;;;2.88;92.92;97722.34;4188352;28;20209;-86
2023/01/20 05:39:26;;;;;;;25.30;19.88;;;;;;;2.88;92.76;97735.22;4171564;28;20637;-86
2023/01/20 05:41:29;;;;;;;22.90;18.80;;;;;;;2.89;92.13;97729.19;4177747;28;20206;-86
2023/01/20 05:43:32;;;;;;;25.30;20.15;;;;;;;2.90;92.09;97738.59;4187298;28;20779;-86
2023/01/20 05:45:35;;;;;;;27.17;20.30;;;;;;;2.90;92.15;97737.72;4170463;28;20321;-86
2023/01/20 05:47:38;;;;;;;22.48;18.10;;;;;;;2.88;92.17;97740.38;4176131;28;20751;-86
2023/01/20 05:49:41;;;;;;;25.60;19.60;;;;;;;2.89;92.11;97748.94;4157542;28;20793;-86
2023/01/20 05:51:46;;;;;;;25.92;19.58;;;;;;;2.89;91.95;97751.53;4191873;28;20239;-86
2023/01/20 05:53:49;;;;;;;25.55;20.02;;;;;;;2.92;91.99;97756.53;4189689;28;20212;-86
2023/01/20 05:55:59;;;;;;;25.23;18.98;;;;;;;2.92;92.52;97759.94;4170039;28;20211;-86
2023/01/20 05:58:02;;;;;;;24.83;19.35;;;;;;;2.93;91.84;97763.34;4188358;28;20689;-86
2023/01/20 06:00:07;;;;;;;25.70;19.35;;;;;;;2.94;92.20;97758.13;4154621;28;20235;-85
2023/01/20 06:02:12;;;;;;;25.20;19.65;;;;;;;2.94;92.53;97754.72;4170827;28;20213;-85
2023/01/20 06:04:14;;;;;;;27.27;20.50;;;;;;;2.93;91.58;97759.06;4175618;28;20641;-86
2023/01/20 06:06:17;;;;;;;26.60;19.98;;;;;;;2.94;91.95;97759.88;4172677;28;20228;-85
2023/01/20 06:08:22;;;;;;;26.88;19.77;;;;;;;2.93;91.33;97763.34;4157645;28;20213;-85
2023/01/20 06:10:26;;;;;;;26.15;20.55;;;;;;;2.91;92.12;97765.16;4189486;28;20205;-85
2023/01/20 06:12:32;;;;;;;25.30;20.30;;;;;;;2.94;91.84;97765.03;4173225;28;20236;-85
2023/01/20 06:14:35;;;;;;;25.48;20.90;;;;;;;2.95;92.23;97777.00;4156050;28;20760;-87
2023/01/20 06:16:39;;;;;;;25.23;19.77;;;;;;;2.93;92.02;97777.06;4158532;28;20226;-86
2023/01/20 06:18:42;;;;;;;27.00;19.00;;;;;;;2.92;91.94;97772.81;4158273;28;20191;-87
2023/01/20 06:20:45;;;;;;;26.60;20.30;;;;;;;2.90;91.71;97779.78;4157789;28;20199;-88
2023/01/20 06:22:48;;;;;;;23.20;18.50;;;;;;;2.90;92.44;97781.50;4157408;28;20297;-87
2023/01/20 06:24:52;;;;;;;26.85;21.02;;;;;;;2.88;92.34;97783.31;4188340;28;20226;-86
2023/01/20 06:26:56;;;;;;;29.60;20.08;;;;;;;2.87;92.04;97782.50;4168214;28;20272;-87
2023/01/20 06:29:00;;;;;;;24.27;19.65;;;;;;;2.87;92.33;97785.06;4148966;28;20214;-87
2023/01/20 06:31:05;;;;;;;25.00;19.88;;;;;;;2.88;92.73;97785.88;4169426;28;20210;-85
2023/01/20 06:33:10;;;;;;;26.98;20.13;;;;;;;2.86;92.47;97790.28;4154985;28;20253;-86
2023/01/20 06:35:14;;;;;;;24.83;20.05;;;;;;;2.84;92.41;97792.06;4169639;28;20301;-87
2023/01/20 06:37:18;;;;;;;26.20;20.27;;;;;;;2.84;92.20;97794.63;4173051;28;20313;-87
2023/01/20 06:39:21;;;;;;;24.80;19.10;;;;;;;2.83;92.39;97808.44;4157460;28;20199;-87
2023/01/20 06:41:25;;;;;;;27.63;19.27;;;;;;;2.82;91.78;97804.16;4186564;28;20284;-88
2023/01/20 06:43:29;;;;;;;23.75;20.23;;;;;;;2.80;91.87;97801.66;4191765;28;20674;-87
2023/01/20 06:45:32;;;;;;;28.30;20.48;;;;;;;2.75;91.56;97805.31;4155394;28;20234;-87
2023/01/20 06:47:35;;;;;;;26.38;18.65;;;;;;;2.75;91.54;97815.63;4175152;28;20561;-87
2023/01/20 06:49:38;;;;;;;25.42;19.17;;;;;;;2.74;91.56;97816.53;4190631;28;20202;-88
2023/01/20 06:51:41;;;;;;;22.05;17.90;;;;;;;2.72;91.14;97815.78;4170138;28;20297;-87
2023/01/20 06:53:44;;;;;;;28.50;20.45;;;;;;;2.70;91.14;97820.13;4172081;28;20207;-87
2023/01/20 06:55:54;;;;;;;23.77;18.70;;;;;;;2.71;91.35;97821.00;4157107;28;20202;-87
2023/01/20 06:57:59;;;;;;;26.27;19.63;;;;;;;2.70;91.58;97827.03;4189130;28;20201;-87
2023/01/20 07:00:03;;;;;;;24.10;18.80;;;;;;;2.66;91.39;97823.75;4188081;28;20208;-87
2023/01/20 07:02:06;;;;;;;25.52;20.02;;;;;;;2.66;91.11;97831.47;4153543;28;20214;-87
2023/01/20 07:04:10;;;;;;;24.63;19.50;;;;;;;2.65;91.90;97834.94;4156061;28;20211;-87
2023/01/20 07:06:18;;;;;;;25.90;19.73;;;;;;;2.69;91.77;97831.34;4169039;28;20214;-87
2023/01/20 07:08:21;;;;;;;24.60;18.90;;;;;;;2.71;92.26;97854.44;4170288;28;20904;-87
2023/01/20 07:10:24;;;;;;;29.48;21.40;;;;;;;2.73;91.73;97857.78;4166286;28;20578;-87
2023/01/20 07:12:27;;;;;;;26.20;19.85;;;;;;;2.73;92.14;97853.47;4171939;28;20211;-88
2023/01/20 07:14:32;;;;;;;26.00;20.70;;;;;;;2.74;91.97;97862.88;4155868;28;20642;-87
2023/01/20 07:16:35;;;;;;;30.98;21.10;;;;;;;2.75;92.05;97864.53;4188447;28;20618;-87
2023/01/20 07:18:39;;;;;;;28.70;21.17;;;;;;;2.79;92.55;97867.81;4187484;28;20297;-88
2023/01/20 07:20:43;;;;;;;27.75;20.83;;;;;;;2.78;92.40;97866.97;4167973;28;20199;-87
2023/01/20 07:22:45;;;;;;;26.20;21.00;;;;;;;2.79;92.02;97868.66;4158808;28;20286;-87
2023/01/20 07:24:48;;;;;;;26.60;20.85;;;;;;;2.81;92.25;97877.13;4173386;28;20275;-87
2023/01/20 07:26:52;;;;;;;29.83;21.80;;;;;;;2.80;91.49;97878.88;4174607;28;20205;-88
2023/01/20 07:28:57;;;;;;;29.08;21.70;;;;;;;2.78;91.71;97879.84;4188486;28;20702;-87
2023/01/20 07:31:04;;;;;;;28.20;20.55;;;;;;;2.79;91.80;97884.09;4151387;28;20303;-87
2023/01/20 07:33:07;;;;;;;28.85;21.60;;;;;;;2.81;91.77;97887.44;4169970;28;20216;-87
2023/01/20 07:35:10;;;;;;;29.63;21.85;;;;;;;2.82;92.16;97891.69;4169374;28;20202;-87
2023/01/20 07:37:14;;;;;;;27.48;20.17;;;;;;;2.82;91.92;97891.69;4157333;28;20233;-88
2023/01/20 07:39:18;;;;;;;27.85;21.42;;;;;;;2.86;91.37;97893.25;4155303;28;20280;-89
2023/01/20 07:41:22;;;;;;;26.13;20.38;;;;;;;2.86;91.69;97900.97;4193614;28;20661;-88
2023/01/20 07:43:25;;;;;;;26.45;20.60;;;;;;;2.86;91.72;97900.97;4177289;28;20225;-87
2023/01/20 07:45:28;;;;;;;29.88;21.50;;;;;;;2.86;91.80;97906.13;4155510;28;20294;-88
2023/01/20 07:47:33;;;;;;;27.63;21.08;;;;;;;2.88;91.61;97899.16;4160318;28;20198;-86
2023/01/20 07:49:36;;;;;;;27.65;20.70;;;;;;;2.86;91.94;97908.69;4170529;28;20203;-89
2023/01/20 07:51:39;;;;;;;27.48;21.23;;;;;;;2.86;91.72;97903.56;4172366;28;20206;-88
2023/01/20 07:53:45;;;;;;;30.00;21.52;;;;;;;2.89;92.23;97917.13;4166758;28;20205;-89
2023/01/20 07:55:48;;;;;;;27.67;20.88;;;;;;;2.88;92.06;97909.47;4186178;28;20202;-88
2023/01/20 07:57:51;;;;;;;26.75;21.05;;;;;;;2.89;92.18;97916.31;4180580;28;20220;-88
2023/01/20 07:59:55;;;;;;;30.05;20.25;;;;;;;2.93;91.57;97931.56;4148751;28;20298;-87
2023/01/20 08:01:58;;;;;;;33.08;22.27;;;;;;;2.96;91.71;97928.00;4162056;28;20214;-86
2023/01/20 08:04:03;;;;;;;37.50;25.35;;;;;;;2.97;91.02;97919.38;4163443;28;20202;-87
2023/01/20 08:06:07;;;;;;;36.05;26.92;;;;;;;2.98;91.21;97926.22;4180927;28;20228;-86
2023/01/20 08:08:11;;;;;;;28.63;22.60;;;;;;;3.01;91.91;97929.50;4161130;28;20204;-87
2023/01/20 08:10:14;;;;;;;27.02;21.63;;;;;;;3.01;91.30;97932.06;4142284;28;20292;-87
2023/01/20 08:12:17;;;;;;;26.15;21.10;;;;;;;3.07;91.27;97933.56;4183247;28;20722;-87
2023/01/20 08:14:20;;;;;;;30.17;22.58;;;;;;;3.08;91.31;97938.66;4169240;28;20274;-86
2023/01/20 08:16:23;;;;;;;31.77;23.30;;;;;;;3.10;91.34;97939.41;4173534;28;20210;-87
2023/01/20 08:18:27;;;;;;;29.83;22.33;;;;;;;3.12;90.72;97942.75;4176687;28;20198;-89
2023/01/20 08:20:31;;;;;;;34.15;23.60;;;;;;;3.18;91.18;97949.41;4190402;28;20205;-87
2023/01/20 08:22:34;;;;;;;35.78;24.17;;;;;;;3.22;91.19;97956.09;4174033;28;20252;-88
2023/01/20 08:24:37;;;;;;;32.80;23.27;;;;;;;3.26;90.62;97949.91;4188648;28;21000;-84
2023/01/20 08:26:40;;;;;;;30.17;22.92;;;;;;;3.31;90.60;97959.13;4186699;28;20217;-84
2023/01/20 08:28:43;;;;;;;29.30;22.50;;;;;;;3.31;90.87;97959.97;4190353;28;20613;-84
2023/01/20 08:30:46;;;;;;;27.27;21.52;;;;;;;3.31;89.96;97959.97;4174407;28;20319;-85
2023/01/20 08:32:49;;;;;;;30.20;22.90;;;;;;;3.31;90.56;97966.88;4160498;28;20206;-86
2023/01/20 08:34:53;;;;;;;29.10;22.15;;;;;;;3.31;89.81;97965.13;4193526;28;20209;-85
2023/01/20 08:36:58;;;;;;;28.85;21.30;;;;;;;3.30;90.07;97966.00;4191877;28;20300;-85
2023/01/20 08:39:03;;;;;;;31.55;22.17;;;;;;;3.30;89.88;97971.16;4163111;28;20206;-85
2023/01/20 08:41:07;;;;;;;31.40;22.35;;;;;;;3.29;91.09;97977.22;4189315;28;20288;-85
2023/01/20 08:43:10;;;;;;;28.30;21.63;;;;;;;3.31;89.69;97975.41;4187972;28;20276;-85
2023/01/20 08:45:13;;;;;;;28.80;20.80;;;;;;;3.31;90.01;97975.41;4158759;28;20309;-85
2023/01/20 08:47:17;;;;;;;26.08;20.42;;;;;;;3.33;90.41;97986.50;4187689;28;20209;-85
2023/01/20 08:49:22;;;;;;;27.63;19.55;;;;;;;3.33;90.14;97986.50;4171922;28;20206;-85
2023/01/20 08:51:27;;;;;;;25.75;19.20;;;;;;;3.36;89.70;97983.78;4150858;28;20233;-85
2023/01/20 08:53:31;;;;;;;26.58;20.70;;;;;;;3.40;90.92;97989.66;4167861;28;20202;-85
2023/01/20 08:55:34;;;;;;;27.65;19.65;;;;;;;3.41;90.09;97994.75;4170775;28;20764;-85
2023/01/20 08:57:37;;;;;;;28.83;21.55;;;;;;;3.43;90.06;97997.28;4171558;28;20668;-86
2023/01/20 08:59:41;;;;;;;30.20;21.80;;;;;;;3.45;89.71;97993.72;4164216;28;20218;-86
2023/01/20 09:01:44;;;;;;;32.38;24.58;;;;;;;3.49;90.38;98002.19;4168053;28;20627;-86
2023/01/20 09:03:47;;;;;;;30.02;20.48;;;;;;;3.51;90.42;98006.34;4174719;28;20248;-86
2023/01/20 09:06:07;;;;;;;38.97;26.65;;;;;;;3.54;90.27;98006.22;4172551;28;20271;-86
2023/01/20 09:08:10;;;;;;;31.17;21.75;;;;;;;3.58;90.67;98012.06;4191990;28;20296;-86
2023/01/20 09:10:15;;;;;;;31.13;21.23;;;;;;;3.59;90.27;98013.75;4191524;28;20701;-86
2023/01/20 09:12:18;;;;;;;26.42;19.98;;;;;;;3.61;90.02;98005.06;4159930;28;20222;-86
2023/01/20 09:14:23;;;;;;;27.52;20.52;;;;;;;3.66;90.40;98016.00;4192983;28;20232;-86
2023/01/20 09:16:26;;;;;;;26.85;19.85;;;;;;;3.69;89.46;98020.22;4158612;28;21218;-86
2023/01/20 09:18:29;;;;;;;27.13;20.42;;;;;;;3.71;89.32;98018.38;4187621;28;20209;-86
2023/01/20 09:20:32;;;;;;;27.83;20.40;;;;;;;3.72;89.02;98016.56;4160162;28;20225;-85
2023/01/20 09:22:35;;;;;;;27.23;20.02;;;;;;;3.76;89.39;98017.31;4171520;28;20206;-86
2023/01/20 09:24:39;;;;;;;27.95;21.20;;;;;;;3.77;88.86;98024.97;4174379;28;20230;-86
2023/01/20 09:26:44;;;;;;;25.52;19.58;;;;;;;3.82;88.87;98024.78;4157536;28;20226;-86
2023/01/20 09:28:47;;;;;;;31.27;21.80;;;;;;;3.78;88.85;98023.22;4158486;28;20214;-86
2023/01/20 09:30:50;;;;;;;30.10;20.88;;;;;;;3.76;88.73;98022.47;4172332;28;20708;-86
2023/01/20 09:32:55;;;;;;;29.42;21.38;;;;;;;3.82;88.41;98029.94;4160788;28;20203;-85
2023/01/20 09:34:58;;;;;;;29.02;20.73;;;;;;;3.86;88.63;98026.31;4174470;28;20630;-86
2023/01/20 09:44:27;;;;;;;23.70;18.35;;;;;;;4.12;88.44;98041.47;4191293;28;20244;-86
2023/01/20 09:46:37;;;;;;;26.75;19.30;;;;;;;4.18;88.32;98051.53;4173287;28;20226;-86
2023/01/20 09:53:42;;;;;;;24.17;19.67;;;;;;;4.24;87.45;98042.63;4173351;28;20196;-85
2023/01/20 09:55:50;;;;;;;25.92;19.58;;;;;;;4.25;86.46;98048.63;4191184;28;20212;-86
2023/01/20 09:57:59;;;;;;;23.33;19.70;;;;;;;4.23;87.16;98051.25;4171853;28;20252;-86
2023/01/20 10:00:09;;;;;;;27.30;21.27;;;;;;;4.26;87.33;98056.28;4184366;28;20194;-87
2023/01/20 10:02:17;;;;;;;26.48;20.42;;;;;;;4.29;86.46;98060.50;4159278;28;20218;-85
2023/01/20 10:04:24;;;;;;;27.60;20.10;;;;;;;4.33;87.50;98055.13;4156100;28;20207;-85
2023/01/20 10:06:31;;;;;;;31.33;20.90;;;;;;;4.33;86.93;98057.69;4189882;28;20606;-85
2023/01/20 10:08:40;;;;;;;31.38;21.55;;;;;;;4.36;86.54;98052.41;4170214;28;20209;-86
2023/01/20 10:10:46;;;;;;;27.45;22.10;;;;;;;4.39;86.63;98054.00;4171376;28;20296;-86